Time;durP1;ratioP1;P1;durP2;ratioP2;P2;SDS_P1;SDS_P2;PMS_P1;PMS_P2;Temp;Humidity;BMP_temperature;BMP_pressure;BME280_temperature;BME280_humidity;BME280_pressure;Samples;Min_cycle;Max_cycle;Signal;HPM_P1;HPM_P2
2023/05/29 00:01:18;;;;;;;4.67;2.90;;;;;;;;;;5111418;28;20516;-69
2023/05/29 00:03:45;;;;;;;4.23;2.80;;;;;;;;;;5112294;28;20451;-69
2023/05/29 00:06:13;;;;;;;7.27;3.13;;;;;;;;;;5111852;28;20444;-69
2023/05/29 00:08:40;;;;;;;3.70;2.17;;;;;;;;;;5098336;28;20479;-69
2023/05/29 00:11:08;;;;;;;4.47;2.83;;;;;;;;;;5111740;28;21004;-69
2023/05/29 00:13:36;;;;;;;2.50;1.93;;;;;;;;;;5112480;28;20454;-69
2023/05/29 00:16:04;;;;;;;3.17;1.90;;;;;;;;;;5111301;28;20806;-69
2023/05/29 00:18:31;;;;;;;6.57;2.73;;;;;;;;;;5111778;28;20495;-69
2023/05/29 00:20:58;;;;;;;3.60;2.20;;;;;;;;;;5110914;28;20455;-69
2023/05/29 00:23:26;;;;;;;5.33;1.90;;;;;;;;;;5111682;28;20448;-69
2023/05/29 00:25:53;;;;;;;2.70;1.90;;;;;;;;;;5105468;28;20815;-69
2023/05/29 00:28:20;;;;;;;3.53;1.37;;;;;;;;;;5111396;28;20508;-69
2023/05/29 00:30:48;;;;;;;4.10;2.73;;;;;;;;;;5097534;28;20472;-69
2023/05/29 00:33:16;;;;;;;5.33;2.57;;;;;;;;;;5100153;28;20444;-69
2023/05/29 00:35:43;;;;;;;2.97;2.37;;;;;;;;;;5111667;28;20474;-69
2023/05/29 00:38:10;;;;;;;3.93;2.00;;;;;;;;;;5111364;28;20447;-69
2023/05/29 00:40:37;;;;;;;4.07;2.90;;;;;;;;;;5111483;28;20443;-69
2023/05/29 00:43:04;;;;;;;5.70;2.70;;;;;;;;;;5111773;28;20436;-69
2023/05/29 00:45:35;;;;;;;4.07;2.33;;;;;;;;;;5110842;28;20534;-69
2023/05/29 00:48:04;;;;;;;4.83;2.33;;;;;;;;;;5108538;28;20982;-69
2023/05/29 00:50:32;;;;;;;3.53;1.73;;;;;;;;;;5109526;28;20968;-69
2023/05/29 00:53:00;;;;;;;3.67;2.17;;;;;;;;;;5111446;28;20456;-69
2023/05/29 00:55:27;;;;;;;4.67;2.63;;;;;;;;;;5112054;27;20443;-68
2023/05/29 00:57:54;;;;;;;2.43;2.10;;;;;;;;;;5120012;27;20449;-69
2023/05/29 01:00:23;;;;;;;4.57;2.40;;;;;;;;;;5109626;28;20444;-69
2023/05/29 01:02:52;;;;;;;5.93;2.33;;;;;;;;;;5109856;28;20844;-69
2023/05/29 01:05:21;;;;;;;3.20;2.30;;;;;;;;;;5109727;28;20451;-69
2023/05/29 01:07:48;;;;;;;3.17;1.97;;;;;;;;;;5109889;28;20521;-69
2023/05/29 01:10:17;;;;;;;4.60;2.80;;;;;;;;;;5108926;28;20507;-69
2023/05/29 01:12:45;;;;;;;2.63;1.50;;;;;;;;;;5110978;28;20432;-69
2023/05/29 01:15:19;;;;;;;2.63;1.50;;;;;;;;;;5102666;28;20887;-69
2023/05/29 01:17:55;;;;;;;6.40;2.10;;;;;;;;;;5109715;28;20452;-69
2023/05/29 01:20:30;;;;;;;6.37;2.57;;;;;;;;;;5109197;28;20443;-69
2023/05/29 01:23:09;;;;;;;3.93;2.03;;;;;;;;;;5108248;28;20455;-69
2023/05/29 01:25:45;;;;;;;4.60;2.03;;;;;;;;;;5111905;28;20500;-69
2023/05/29 01:28:14;;;;;;;4.60;2.20;;;;;;;;;;5114275;28;20801;-69
2023/05/29 01:30:42;;;;;;;5.23;2.57;;;;;;;;;;5114527;28;20531;-69
2023/05/29 01:33:09;;;;;;;3.40;1.70;;;;;;;;;;5115298;28;20449;-70
2023/05/29 01:35:36;;;;;;;3.07;1.80;;;;;;;;;;5115093;28;20454;-69
2023/05/29 01:38:03;;;;;;;2.30;1.60;;;;;;;;;;5115205;28;20454;-68
2023/05/29 01:40:30;;;;;;;4.03;2.10;;;;;;;;;;5113966;28;20439;-69
2023/05/29 01:42:58;;;;;;;4.70;2.23;;;;;;;;;;5114248;28;20505;-69
2023/05/29 01:45:26;;;;;;;4.90;2.23;;;;;;;;;;5109954;28;20959;-69
2023/05/29 01:47:53;;;;;;;2.80;1.53;;;;;;;;;;5114925;28;20491;-69
2023/05/29 01:50:22;;;;;;;4.93;2.27;;;;;;;;;;5111543;28;20803;-69
2023/05/29 01:52:49;;;;;;;7.20;2.30;;;;;;;;;;5114026;28;20455;-69
2023/05/29 01:55:16;;;;;;;2.23;1.40;;;;;;;;;;5114482;28;20473;-69
2023/05/29 01:57:44;;;;;;;4.07;2.73;;;;;;;;;;5114211;28;20454;-69
2023/05/29 02:00:11;;;;;;;4.40;1.87;;;;;;;;;;5110496;28;20934;-69
2023/05/29 02:02:40;;;;;;;3.00;1.73;;;;;;;;;;5113770;28;20516;-68
2023/05/29 02:05:09;;;;;;;3.47;1.83;;;;;;;;;;5114491;28;20813;-68
2023/05/29 02:07:36;;;;;;;4.20;2.40;;;;;;;;;;5115022;28;20475;-68
2023/05/29 02:10:03;;;;;;;2.50;1.77;;;;;;;;;;5114182;28;20884;-68
2023/05/29 02:12:30;;;;;;;5.20;2.53;;;;;;;;;;5113999;28;20450;-68
2023/05/29 02:14:58;;;;;;;3.53;1.47;;;;;;;;;;5114643;28;20444;-68
2023/05/29 02:17:25;;;;;;;3.47;1.97;;;;;;;;;;5114176;28;20513;-68
2023/05/29 02:19:53;;;;;;;3.67;2.23;;;;;;;;;;5113809;28;20443;-68
2023/05/29 02:22:20;;;;;;;3.53;2.20;;;;;;;;;;5112622;28;20439;-68
2023/05/29 02:24:48;;;;;;;4.37;2.07;;;;;;;;;;5114575;28;20448;-68
2023/05/29 02:27:15;;;;;;;5.97;2.20;;;;;;;;;;5113388;28;20440;-68
2023/05/29 02:29:42;;;;;;;3.27;1.63;;;;;;;;;;5113831;28;20598;-68
2023/05/29 02:32:09;;;;;;;3.57;2.03;;;;;;;;;;5113706;28;20448;-69
2023/05/29 02:34:36;;;;;;;2.40;1.37;;;;;;;;;;5114149;28;20938;-67
2023/05/29 02:37:05;;;;;;;3.83;1.63;;;;;;;;;;5113846;28;20444;-68
2023/05/29 02:39:32;;;;;;;4.43;2.23;;;;;;;;;;5099082;28;21019;-68
2023/05/29 02:41:59;;;;;;;3.83;1.97;;;;;;;;;;5113714;28;20452;-67
2023/05/29 02:44:26;;;;;;;2.60;1.90;;;;;;;;;;5113287;28;20980;-67
2023/05/29 02:46:53;;;;;;;4.53;2.00;;;;;;;;;;5113769;28;20455;-68
2023/05/29 02:49:20;;;;;;;3.07;1.80;;;;;;;;;;5112496;28;20495;-68
2023/05/29 02:51:47;;;;;;;3.73;2.40;;;;;;;;;;5113487;28;20484;-68
2023/05/29 02:54:16;;;;;;;3.53;2.40;;;;;;;;;;5113246;28;20807;-68
2023/05/29 02:56:43;;;;;;;2.20;1.73;;;;;;;;;;5100178;28;20448;-68
2023/05/29 02:59:10;;;;;;;4.40;2.30;;;;;;;;;;5113022;28;20451;-66
2023/05/29 03:01:37;;;;;;;4.33;1.80;;;;;;;;;;5112914;28;20965;-67
2023/05/29 03:04:04;;;;;;;5.90;2.37;;;;;;;;;;5113638;28;20444;-68
2023/05/29 03:06:32;;;;;;;3.00;1.50;;;;;;;;;;5113161;28;20452;-67
2023/05/29 03:08:59;;;;;;;3.13;1.70;;;;;;;;;;5113089;28;20619;-67
2023/05/29 03:11:28;;;;;;;5.80;2.83;;;;;;;;;;5112601;28;20522;-67
2023/05/29 03:13:55;;;;;;;2.97;1.87;;;;;;;;;;5113125;28;20849;-67
2023/05/29 03:16:23;;;;;;;3.30;1.57;;;;;;;;;;5112949;28;20440;-68
2023/05/29 03:18:50;;;;;;;2.10;1.70;;;;;;;;;;5113244;28;20520;-69
2023/05/29 03:21:17;;;;;;;2.70;1.77;;;;;;;;;;5112168;28;20444;-69
2023/05/29 03:23:45;;;;;;;7.00;1.83;;;;;;;;;;5113545;28;20443;-67
2023/05/29 03:26:13;;;;;;;5.23;2.10;;;;;;;;;;5112646;28;20804;-68
2023/05/29 03:28:41;;;;;;;3.30;2.00;;;;;;;;;;5113166;28;20493;-68
2023/05/29 03:31:08;;;;;;;3.03;1.73;;;;;;;;;;5112404;28;20463;-68
2023/05/29 03:33:36;;;;;;;3.57;1.83;;;;;;;;;;5113474;28;20448;-68
2023/05/29 03:36:03;;;;;;;5.17;1.20;;;;;;;;;;5113422;28;20455;-68
2023/05/29 03:38:30;;;;;;;2.47;1.67;;;;;;;;;;5112375;28;20451;-68
2023/05/29 03:40:57;;;;;;;1.87;1.03;;;;;;;;;;5112556;28;20901;-68
2023/05/29 03:43:24;;;;;;;5.73;1.63;;;;;;;;;;5112304;28;20443;-68
2023/05/29 03:45:53;;;;;;;2.47;1.67;;;;;;;;;;5112588;28;20455;-68
2023/05/29 03:48:20;;;;;;;3.40;2.17;;;;;;;;;;5112200;28;20507;-68
2023/05/29 03:50:47;;;;;;;2.97;2.07;;;;;;;;;;5103554;28;20450;-68
2023/05/29 03:53:15;;;;;;;3.53;1.87;;;;;;;;;;5112197;28;20447;-68
2023/05/29 03:55:42;;;;;;;2.90;1.93;;;;;;;;;;5106282;28;20782;-68
2023/05/29 03:58:12;;;;;;;3.13;2.30;;;;;;;;;;5106273;28;20550;-69
2023/05/29 04:00:39;;;;;;;2.37;1.80;;;;;;;;;;5112659;28;20451;-68
2023/05/29 04:03:07;;;;;;;3.10;1.60;;;;;;;;;;5112630;28;20455;-67
2023/05/29 04:05:34;;;;;;;2.37;1.77;;;;;;;;;;5112529;28;20462;-68
2023/05/29 04:08:04;;;;;;;3.60;1.67;;;;;;;;;;5111992;28;20456;-68
2023/05/29 04:10:33;;;;;;;3.43;1.70;;;;;;;;;;5111415;28;21080;-69
2023/05/29 04:13:00;;;;;;;5.30;1.90;;;;;;;;;;5112498;28;20447;-68
2023/05/29 04:15:28;;;;;;;4.77;1.57;;;;;;;;;;5111463;28;20456;-68
2023/05/29 04:17:55;;;;;;;3.03;1.50;;;;;;;;;;5112174;28;20513;-68
2023/05/29 04:20:24;;;;;;;3.40;2.60;;;;;;;;;;5111113;28;20452;-68
2023/05/29 04:22:51;;;;;;;2.40;1.30;;;;;;;;;;5111660;28;20525;-68
2023/05/29 04:25:18;;;;;;;4.03;2.30;;;;;;;;;;5108343;28;20448;-68
2023/05/29 04:27:48;;;;;;;2.57;1.20;;;;;;;;;;5108977;28;20943;-68
2023/05/29 04:30:16;;;;;;;4.57;2.57;;;;;;;;;;5106369;28;20521;-68
2023/05/29 04:32:43;;;;;;;3.33;1.50;;;;;;;;;;5111798;28;20463;-68
2023/05/29 04:35:10;;;;;;;3.40;1.30;;;;;;;;;;5111109;28;20439;-69
2023/05/29 04:37:39;;;;;;;5.73;2.13;;;;;;;;;;5112135;28;20444;-69
2023/05/29 04:40:09;;;;;;;2.60;1.33;;;;;;;;;;5111285;28;20448;-68
2023/05/29 04:42:36;;;;;;;2.43;1.40;;;;;;;;;;5111664;28;20447;-70
2023/05/29 04:45:04;;;;;;;2.73;1.60;;;;;;;;;;5111652;28;20475;-70
2023/05/29 04:47:32;;;;;;;2.47;1.37;;;;;;;;;;5111204;28;20793;-70
2023/05/29 04:50:00;;;;;;;5.70;2.40;;;;;;;;;;5110809;28;20875;-70
2023/05/29 04:52:27;;;;;;;5.93;1.70;;;;;;;;;;5100322;28;20810;-70
2023/05/29 04:54:56;;;;;;;4.20;2.30;;;;;;;;;;5111326;28;20478;-70
2023/05/29 04:57:23;;;;;;;6.27;2.10;;;;;;;;;;5098103;28;20490;-70
2023/05/29 04:59:50;;;;;;;3.50;1.93;;;;;;;;;;5110533;28;20456;-70
2023/05/29 05:02:17;;;;;;;2.17;1.60;;;;;;;;;;5110556;28;20440;-70
2023/05/29 05:04:45;;;;;;;3.40;1.97;;;;;;;;;;5111317;28;20448;-70
2023/05/29 05:07:12;;;;;;;4.73;2.03;;;;;;;;;;5110981;28;20875;-70
2023/05/29 05:09:39;;;;;;;5.53;2.13;;;;;;;;;;5110386;28;21016;-71
2023/05/29 05:12:08;;;;;;;7.33;2.30;;;;;;;;;;5111680;28;20444;-70
2023/05/29 05:14:35;;;;;;;3.87;2.10;;;;;;;;;;5111476;28;20448;-70
2023/05/29 05:17:03;;;;;;;2.70;1.57;;;;;;;;;;5110736;28;20455;-70
2023/05/29 05:19:30;;;;;;;3.17;2.00;;;;;;;;;;5109390;28;20934;-70
2023/05/29 05:21:57;;;;;;;2.43;1.83;;;;;;;;;;5111152;28;20451;-70
2023/05/29 05:24:24;;;;;;;4.83;1.63;;;;;;;;;;5110392;28;20443;-70
2023/05/29 05:26:51;;;;;;;3.67;1.77;;;;;;;;;;5107159;28;20554;-70
2023/05/29 05:29:20;;;;;;;6.93;2.57;;;;;;;;;;5107019;28;20864;-70
2023/05/29 05:31:47;;;;;;;3.63;2.70;;;;;;;;;;5100976;28;20451;-71
2023/05/29 05:34:15;;;;;;;4.40;2.57;;;;;;;;;;5109948;28;20939;-70
2023/05/29 05:36:42;;;;;;;10.60;2.37;;;;;;;;;;5110954;28;20475;-71
2023/05/29 05:39:09;;;;;;;3.10;1.70;;;;;;;;;;5110665;28;20452;-74
2023/05/29 05:41:36;;;;;;;4.10;2.00;;;;;;;;;;5110835;28;20444;-70
2023/05/29 05:44:03;;;;;;;4.00;1.93;;;;;;;;;;5111098;28;20463;-70
2023/05/29 05:46:32;;;;;;;2.90;1.97;;;;;;;;;;5110004;28;20981;-70
2023/05/29 05:49:00;;;;;;;2.67;1.43;;;;;;;;;;5111052;28;20495;-70
2023/05/29 05:51:28;;;;;;;4.10;2.33;;;;;;;;;;5110163;28;21791;-69
2023/05/29 05:53:55;;;;;;;3.10;1.77;;;;;;;;;;5111057;28;20462;-70
2023/05/29 05:56:22;;;;;;;3.07;1.90;;;;;;;;;;5110262;28;20456;-70
2023/05/29 05:58:50;;;;;;;4.00;2.20;;;;;;;;;;5110992;28;20457;-70
2023/05/29 06:01:17;;;;;;;3.40;2.27;;;;;;;;;;5109927;28;20534;-70
2023/05/29 06:03:45;;;;;;;3.30;1.83;;;;;;;;;;5110019;28;20452;-71
2023/05/29 06:06:12;;;;;;;3.60;2.53;;;;;;;;;;5109493;28;20448;-70
2023/05/29 06:08:41;;;;;;;3.60;2.10;;;;;;;;;;5108412;28;20450;-72
2023/05/29 06:11:08;;;;;;;3.70;2.37;;;;;;;;;;5109114;28;20444;-69
2023/05/29 06:13:35;;;;;;;4.73;1.60;;;;;;;;;;5114205;28;20440;-68
2023/05/29 06:16:02;;;;;;;4.80;2.67;;;;;;;;;;5113969;28;20455;-69
2023/05/29 06:18:29;;;;;;;2.43;1.67;;;;;;;;;;5112842;28;21024;-69
2023/05/29 06:20:58;;;;;;;5.83;2.83;;;;;;;;;;5111883;28;20942;-69
2023/05/29 06:23:25;;;;;;;3.33;2.10;;;;;;;;;;5113476;28;20447;-69
2023/05/29 06:25:52;;;;;;;4.87;2.40;;;;;;;;;;5111155;28;20443;-69
2023/05/29 06:28:19;;;;;;;4.73;2.57;;;;;;;;;;5108638;28;20458;-69
2023/05/29 06:30:46;;;;;;;5.50;2.67;;;;;;;;;;5111617;28;20478;-72
2023/05/29 06:33:14;;;;;;;5.03;2.00;;;;;;;;;;5108236;27;20544;-68
2023/05/29 06:35:41;;;;;;;4.10;1.90;;;;;;;;;;5116999;27;20452;-69
2023/05/29 06:38:10;;;;;;;6.33;2.20;;;;;;;;;;5113201;28;20609;-68
2023/05/29 06:40:37;;;;;;;2.97;1.60;;;;;;;;;;5110479;28;20458;-68
2023/05/29 06:43:04;;;;;;;3.13;1.80;;;;;;;;;;5112364;27;20968;-67
2023/05/29 06:45:31;;;;;;;3.27;1.90;;;;;;;;;;5118708;27;20451;-68
2023/05/29 06:47:58;;;;;;;3.70;2.27;;;;;;;;;;5110717;28;20448;-68
2023/05/29 06:50:25;;;;;;;7.73;2.40;;;;;;;;;;5112118;28;20475;-68
2023/05/29 06:52:52;;;;;;;3.17;1.97;;;;;;;;;;5112284;28;20447;-68
2023/05/29 06:55:21;;;;;;;3.00;1.90;;;;;;;;;;5108127;28;20452;-72
2023/05/29 06:57:48;;;;;;;2.67;2.00;;;;;;;;;;5111269;28;20682;-69
2023/05/29 07:00:16;;;;;;;6.30;2.63;;;;;;;;;;5109706;27;20454;-68
2023/05/29 07:02:43;;;;;;;7.33;2.40;;;;;;;;;;5112851;27;20444;-69
2023/05/29 07:05:10;;;;;;;3.70;2.03;;;;;;;;;;5109371;28;20451;-72
2023/05/29 07:07:37;;;;;;;3.80;2.20;;;;;;;;;;5111682;28;20440;-69
2023/05/29 07:10:05;;;;;;;3.93;2.50;;;;;;;;;;5111094;28;20475;-69
2023/05/29 07:12:34;;;;;;;2.97;2.57;;;;;;;;;;5112524;27;20573;-69
2023/05/29 07:15:01;;;;;;;3.17;1.93;;;;;;;;;;5112092;28;21289;-69
2023/05/29 07:17:28;;;;;;;5.63;1.83;;;;;;;;;;5111303;28;20527;-72
2023/05/29 07:19:55;;;;;;;2.30;1.43;;;;;;;;;;5112433;27;20479;-70
2023/05/29 07:22:22;;;;;;;4.57;2.37;;;;;;;;;;5107694;28;20436;-68
2023/05/29 07:24:50;;;;;;;2.40;2.10;;;;;;;;;;5115879;27;20810;-71
2023/05/29 07:27:17;;;;;;;2.77;2.10;;;;;;;;;;5111742;28;20839;-69
2023/05/29 07:29:45;;;;;;;3.17;1.97;;;;;;;;;;5111998;28;20471;-72
2023/05/29 07:32:12;;;;;;;3.70;1.90;;;;;;;;;;5111699;28;20961;-72
2023/05/29 07:34:39;;;;;;;2.77;2.07;;;;;;;;;;5099476;28;20508;-71
2023/05/29 07:37:08;;;;;;;4.63;2.27;;;;;;;;;;5112935;28;20451;-69
2023/05/29 07:39:36;;;;;;;3.10;2.00;;;;;;;;;;5110751;28;20451;-68
2023/05/29 07:42:03;;;;;;;2.83;1.83;;;;;;;;;;5115750;27;20446;-68
2023/05/29 07:44:30;;;;;;;4.20;1.97;;;;;;;;;;5111660;28;20660;-70
2023/05/29 07:46:59;;;;;;;3.93;2.00;;;;;;;;;;5112774;28;20440;-71
2023/05/29 07:49:26;;;;;;;2.13;1.47;;;;;;;;;;5112251;27;20480;-69
2023/05/29 07:51:54;;;;;;;1.70;1.20;;;;;;;;;;5112046;27;20973;-69
2023/05/29 07:54:22;;;;;;;3.43;1.80;;;;;;;;;;5110000;28;20440;-70
2023/05/29 07:56:50;;;;;;;3.43;2.10;;;;;;;;;;5110289;28;20451;-69
2023/05/29 07:59:17;;;;;;;3.37;2.30;;;;;;;;;;5110480;28;20444;-71
2023/05/29 08:01:45;;;;;;;5.50;1.90;;;;;;;;;;5112306;28;20968;-70
2023/05/29 08:04:13;;;;;;;2.50;1.60;;;;;;;;;;5109933;28;20531;-70
2023/05/29 08:06:42;;;;;;;5.17;2.20;;;;;;;;;;5109791;27;20440;-71
2023/05/29 08:09:09;;;;;;;3.20;1.77;;;;;;;;;;5101287;28;20838;-74
2023/05/29 08:11:37;;;;;;;3.77;2.10;;;;;;;;;;5112257;28;20443;-70
2023/05/29 08:14:04;;;;;;;3.30;2.37;;;;;;;;;;5112232;28;21011;-69
2023/05/29 08:16:31;;;;;;;2.57;2.20;;;;;;;;;;5111552;28;20444;-69
2023/05/29 08:18:59;;;;;;;4.10;2.10;;;;;;;;;;5111639;28;20457;-69
2023/05/29 08:21:27;;;;;;;3.60;2.27;;;;;;;;;;5111399;28;20454;-69
2023/05/29 08:23:54;;;;;;;3.70;1.70;;;;;;;;;;5113373;27;20447;-69
2023/05/29 08:26:21;;;;;;;3.37;2.30;;;;;;;;;;5111529;28;20803;-69
2023/05/29 08:28:48;;;;;;;2.97;1.53;;;;;;;;;;5111702;28;20444;-70
2023/05/29 08:31:16;;;;;;;5.70;3.00;;;;;;;;;;5111024;28;20976;-69
2023/05/29 08:33:43;;;;;;;3.20;2.20;;;;;;;;;;5110828;28;20444;-71
2023/05/29 08:36:10;;;;;;;1.90;1.40;;;;;;;;;;5110062;28;20456;-73
2023/05/29 08:38:39;;;;;;;3.00;1.70;;;;;;;;;;5110519;28;20456;-68
2023/05/29 08:41:06;;;;;;;2.67;2.00;;;;;;;;;;5111047;28;21025;-69
2023/05/29 08:43:34;;;;;;;4.00;2.37;;;;;;;;;;5110358;28;20806;-69
2023/05/29 08:46:02;;;;;;;3.20;1.70;;;;;;;;;;5110854;28;20448;-68
2023/05/29 08:48:30;;;;;;;3.37;2.50;;;;;;;;;;5112075;27;20478;-68
2023/05/29 08:51:00;;;;;;;3.30;1.80;;;;;;;;;;5111300;28;20528;-68
2023/05/29 08:53:27;;;;;;;2.87;1.70;;;;;;;;;;5111034;28;20451;-68
2023/05/29 08:55:57;;;;;;;3.20;2.10;;;;;;;;;;5114054;27;20451;-68
2023/05/29 08:58:24;;;;;;;2.40;1.63;;;;;;;;;;5110994;28;20443;-68
2023/05/29 09:00:52;;;;;;;3.73;2.53;;;;;;;;;;5110917;28;20479;-68
2023/05/29 09:03:20;;;;;;;7.50;2.70;;;;;;;;;;5110744;28;20450;-68
2023/05/29 09:05:48;;;;;;;3.40;2.00;;;;;;;;;;5110511;28;20939;-66
2023/05/29 09:08:16;;;;;;;3.27;1.60;;;;;;;;;;5110339;28;20448;-67
2023/05/29 09:10:44;;;;;;;3.13;2.13;;;;;;;;;;5110380;28;20518;-68
2023/05/29 09:13:13;;;;;;;4.33;2.33;;;;;;;;;;5110385;28;20439;-68
2023/05/29 09:15:42;;;;;;;3.37;2.40;;;;;;;;;;5110011;28;20531;-67
2023/05/29 09:18:10;;;;;;;4.10;2.17;;;;;;;;;;5109682;28;20461;-69
2023/05/29 09:20:37;;;;;;;3.50;2.10;;;;;;;;;;5110905;28;20780;-66
2023/05/29 09:23:05;;;;;;;4.47;2.50;;;;;;;;;;5111103;28;20450;-66
2023/05/29 09:25:33;;;;;;;3.43;2.17;;;;;;;;;;5112940;27;20541;-67
2023/05/29 09:28:02;;;;;;;3.73;2.23;;;;;;;;;;5111227;28;20467;-66
2023/05/29 09:30:34;;;;;;;2.23;1.90;;;;;;;;;;5104658;28;20828;-66
2023/05/29 09:33:01;;;;;;;3.63;2.10;;;;;;;;;;5110783;28;20440;-67
2023/05/29 09:35:33;;;;;;;2.63;1.87;;;;;;;;;;5110346;28;20870;-67
2023/05/29 09:38:00;;;;;;;5.37;2.47;;;;;;;;;;5098296;28;20440;-67
2023/05/29 09:40:27;;;;;;;1.97;1.77;;;;;;;;;;5109346;28;20520;-67
2023/05/29 09:42:54;;;;;;;2.70;1.77;;;;;;;;;;5110765;28;20858;-65
2023/05/29 09:45:23;;;;;;;2.90;2.17;;;;;;;;;;5121981;28;20449;-66
2023/05/29 09:47:53;;;;;;;3.23;2.00;;;;;;;;;;5113198;28;20452;-65
2023/05/29 09:50:22;;;;;;;2.60;1.80;;;;;;;;;;5114517;27;20483;-66
2023/05/29 09:52:52;;;;;;;3.20;2.57;;;;;;;;;;5115265;28;20522;-66
2023/05/29 09:55:19;;;;;;;4.50;2.57;;;;;;;;;;5114339;28;20451;-66
2023/05/29 09:57:48;;;;;;;3.73;2.10;;;;;;;;;;5115189;28;20451;-66
2023/05/29 10:00:16;;;;;;;2.90;2.07;;;;;;;;;;5113718;28;20443;-66
2023/05/29 10:02:43;;;;;;;3.57;2.20;;;;;;;;;;5115203;28;20478;-67
2023/05/29 10:05:15;;;;;;;3.20;2.20;;;;;;;;;;5114473;28;20550;-67
2023/05/29 10:07:44;;;;;;;3.33;2.40;;;;;;;;;;5116229;27;20515;-68
2023/05/29 10:10:13;;;;;;;3.07;2.23;;;;;;;;;;5113479;28;20486;-68
2023/05/29 10:12:41;;;;;;;2.80;1.90;;;;;;;;;;5114997;28;20524;-68
2023/05/29 10:15:13;;;;;;;3.23;1.90;;;;;;;;;;5114834;27;20939;-67
2023/05/29 10:17:41;;;;;;;2.60;1.60;;;;;;;;;;5114829;28;20440;-68
2023/05/29 10:20:10;;;;;;;2.40;1.50;;;;;;;;;;5121642;27;20439;-68
2023/05/29 10:22:41;;;;;;;3.23;1.77;;;;;;;;;;5114916;28;20508;-67
2023/05/29 10:25:10;;;;;;;2.47;2.00;;;;;;;;;;5114852;27;20522;-67
2023/05/29 10:27:37;;;;;;;3.40;2.10;;;;;;;;;;5122146;27;20810;-67
2023/05/29 10:30:08;;;;;;;3.67;2.73;;;;;;;;;;5109702;27;20941;-67
2023/05/29 10:32:40;;;;;;;2.47;2.00;;;;;;;;;;5117985;27;20840;-68
2023/05/29 10:35:10;;;;;;;2.93;1.93;;;;;;;;;;5114746;28;20439;-68
2023/05/29 10:37:40;;;;;;;3.90;2.07;;;;;;;;;;5114679;28;20443;-67
2023/05/29 10:40:12;;;;;;;2.97;1.83;;;;;;;;;;5123388;27;20438;-68
2023/05/29 10:42:43;;;;;;;2.77;1.50;;;;;;;;;;5115329;27;20801;-68
2023/05/29 10:45:12;;;;;;;3.93;2.43;;;;;;;;;;5114570;27;20456;-68
2023/05/29 10:47:39;;;;;;;2.60;1.93;;;;;;;;;;5100837;28;20439;-68
2023/05/29 10:50:07;;;;;;;2.40;2.00;;;;;;;;;;5113692;28;20444;-67
2023/05/29 10:52:35;;;;;;;2.87;1.97;;;;;;;;;;5114380;28;20443;-67
2023/05/29 10:55:04;;;;;;;2.87;1.90;;;;;;;;;;5113663;28;20504;-67
2023/05/29 10:57:35;;;;;;;2.80;1.80;;;;;;;;;;5113071;28;20504;-67
2023/05/29 11:00:13;;;;;;;2.30;1.80;;;;;;;;;;5112296;28;20492;-67
2023/05/29 11:02:40;;;;;;;3.40;2.07;;;;;;;;;;5113970;28;20445;-67
2023/05/29 11:05:19;;;;;;;2.47;2.00;;;;;;;;;;5113938;28;20498;-67
2023/05/29 11:07:54;;;;;;;3.17;1.63;;;;;;;;;;5114431;27;20442;-67
2023/05/29 11:10:36;;;;;;;3.13;2.00;;;;;;;;;;5111891;27;20468;-67
2023/05/29 11:13:07;;;;;;;2.17;1.67;;;;;;;;;;5111559;28;20448;-67
2023/05/29 11:15:34;;;;;;;2.00;1.30;;;;;;;;;;5113608;28;20443;-68
2023/05/29 11:18:07;;;;;;;2.60;1.63;;;;;;;;;;5112631;28;20488;-67
2023/05/29 11:20:38;;;;;;;4.23;1.83;;;;;;;;;;5111838;28;20448;-67
2023/05/29 11:23:07;;;;;;;3.50;2.10;;;;;;;;;;5112889;28;20473;-68
2023/05/29 11:25:36;;;;;;;2.60;1.70;;;;;;;;;;5112593;28;20535;-68
2023/05/29 11:28:08;;;;;;;2.43;1.50;;;;;;;;;;5112173;28;20446;-68
2023/05/29 11:30:42;;;;;;;2.97;2.17;;;;;;;;;;5112776;28;20555;-69
2023/05/29 11:33:10;;;;;;;2.57;1.97;;;;;;;;;;5112017;28;20439;-68
2023/05/29 11:35:39;;;;;;;2.03;1.33;;;;;;;;;;5112276;28;20536;-68
2023/05/29 11:38:07;;;;;;;4.10;1.90;;;;;;;;;;5112969;28;20478;-68
2023/05/29 11:40:37;;;;;;;1.60;1.30;;;;;;;;;;5110584;28;20451;-67
2023/05/29 11:43:06;;;;;;;2.10;1.50;;;;;;;;;;5112562;28;20444;-68
2023/05/29 11:45:34;;;;;;;2.50;1.33;;;;;;;;;;5112072;28;20451;-68
2023/05/29 11:48:03;;;;;;;2.53;1.70;;;;;;;;;;5112427;28;20512;-68
2023/05/29 11:50:31;;;;;;;4.00;1.87;;;;;;;;;;5110289;28;20455;-68
2023/05/29 11:52:58;;;;;;;1.70;1.40;;;;;;;;;;5111607;28;20488;-68
2023/05/29 11:55:26;;;;;;;1.90;1.50;;;;;;;;;;5111286;28;20440;-68
2023/05/29 11:57:57;;;;;;;2.60;1.50;;;;;;;;;;5112470;28;20455;-68
2023/05/29 12:00:25;;;;;;;3.70;1.73;;;;;;;;;;5110868;28;20471;-68
2023/05/29 12:02:53;;;;;;;3.40;1.93;;;;;;;;;;5112447;28;20496;-67
2023/05/29 12:05:20;;;;;;;2.40;1.60;;;;;;;;;;5111931;28;20803;-67
2023/05/29 12:07:50;;;;;;;2.57;1.70;;;;;;;;;;5110352;28;20482;-66
2023/05/29 12:10:19;;;;;;;3.10;2.00;;;;;;;;;;5109458;28;20476;-67
2023/05/29 12:12:49;;;;;;;2.40;1.50;;;;;;;;;;5111124;28;20491;-67
2023/05/29 12:15:18;;;;;;;2.70;1.40;;;;;;;;;;5115241;27;20958;-66
2023/05/29 12:17:46;;;;;;;3.00;1.73;;;;;;;;;;5114072;27;20805;-67
2023/05/29 12:20:14;;;;;;;2.73;1.70;;;;;;;;;;5111248;27;20530;-67
2023/05/29 12:22:42;;;;;;;3.00;1.63;;;;;;;;;;5111821;28;20462;-67
2023/05/29 12:25:10;;;;;;;3.00;2.00;;;;;;;;;;5111961;28;20471;-71
2023/05/29 12:27:42;;;;;;;2.27;1.17;;;;;;;;;;5111940;28;20444;-66
2023/05/29 12:30:10;;;;;;;1.87;1.43;;;;;;;;;;5111044;28;20470;-72
2023/05/29 12:32:37;;;;;;;2.20;1.40;;;;;;;;;;5111878;28;20996;-66
2023/05/29 12:35:13;;;;;;;2.43;1.57;;;;;;;;;;5112153;28;20443;-67
2023/05/29 12:37:43;;;;;;;2.70;1.80;;;;;;;;;;5111693;28;20500;-67
2023/05/29 12:40:11;;;;;;;3.13;1.90;;;;;;;;;;5110837;28;20440;-67
2023/05/29 12:42:39;;;;;;;2.80;1.80;;;;;;;;;;5111691;28;20455;-67
2023/05/29 12:45:09;;;;;;;2.50;1.87;;;;;;;;;;5112061;28;20440;-67
2023/05/29 12:47:36;;;;;;;2.63;1.50;;;;;;;;;;5111627;28;20875;-67
2023/05/29 12:50:20;;;;;;;2.30;1.53;;;;;;;;;;5109477;27;20451;-67
2023/05/29 12:52:47;;;;;;;1.67;1.17;;;;;;;;;;5100052;28;20482;-67
2023/05/29 12:55:14;;;;;;;2.37;1.57;;;;;;;;;;5110435;28;20833;-68
2023/05/29 12:57:44;;;;;;;2.40;1.70;;;;;;;;;;5099893;28;20463;-68
2023/05/29 13:00:12;;;;;;;2.07;1.43;;;;;;;;;;5106501;28;20451;-68
2023/05/29 13:02:39;;;;;;;2.37;1.70;;;;;;;;;;5111629;28;20448;-70
2023/05/29 13:05:08;;;;;;;2.40;1.50;;;;;;;;;;5111701;28;20482;-67
2023/05/29 13:07:36;;;;;;;2.10;1.40;;;;;;;;;;5111477;28;20457;-68
2023/05/29 13:10:03;;;;;;;2.57;2.00;;;;;;;;;;5108046;28;20479;-69
2023/05/29 13:12:31;;;;;;;3.03;2.00;;;;;;;;;;5111653;27;20471;-68
2023/05/29 13:14:58;;;;;;;4.60;2.90;;;;;;;;;;5117800;27;21025;-70
2023/05/29 13:17:25;;;;;;;3.00;1.97;;;;;;;;;;5110170;28;20446;-69
2023/05/29 13:19:52;;;;;;;1.80;1.30;;;;;;;;;;5110727;28;20466;-69
2023/05/29 13:22:19;;;;;;;2.97;1.63;;;;;;;;;;5109671;28;20454;-69
2023/05/29 13:24:48;;;;;;;2.50;1.80;;;;;;;;;;5111256;28;20478;-68
2023/05/29 13:27:15;;;;;;;2.77;1.97;;;;;;;;;;5114726;28;20465;-68
2023/05/29 13:29:43;;;;;;;1.80;1.37;;;;;;;;;;5108095;28;20440;-69
2023/05/29 13:32:10;;;;;;;2.97;2.10;;;;;;;;;;5106365;28;20472;-71
2023/05/29 13:34:37;;;;;;;2.43;1.70;;;;;;;;;;5110801;28;20524;-68
2023/05/29 13:37:05;;;;;;;2.40;2.20;;;;;;;;;;5110684;28;20446;-70
2023/05/29 13:39:32;;;;;;;2.20;1.70;;;;;;;;;;5109668;28;20452;-68
2023/05/29 13:42:00;;;;;;;2.60;1.93;;;;;;;;;;5110537;28;21231;-68
2023/05/29 13:44:28;;;;;;;2.83;1.70;;;;;;;;;;5108404;28;20440;-68
2023/05/29 13:46:55;;;;;;;1.90;1.40;;;;;;;;;;5109257;28;20802;-68
2023/05/29 13:49:22;;;;;;;2.13;1.30;;;;;;;;;;5110031;28;20451;-69
2023/05/29 13:51:49;;;;;;;2.10;1.70;;;;;;;;;;5108528;28;20472;-68
2023/05/29 13:54:18;;;;;;;2.47;1.80;;;;;;;;;;5109397;28;20535;-68
2023/05/29 13:56:45;;;;;;;2.50;1.70;;;;;;;;;;5111075;28;20501;-67
2023/05/29 13:59:14;;;;;;;2.60;1.77;;;;;;;;;;5110286;28;20808;-68
2023/05/29 14:01:42;;;;;;;2.50;1.70;;;;;;;;;;5110609;28;20519;-68
2023/05/29 14:04:09;;;;;;;3.20;1.80;;;;;;;;;;5111067;28;20862;-70
2023/05/29 14:06:37;;;;;;;2.60;1.73;;;;;;;;;;5111115;28;20447;-67
2023/05/29 14:09:05;;;;;;;3.53;1.60;;;;;;;;;;5111064;28;20550;-67
2023/05/29 14:11:35;;;;;;;2.57;1.77;;;;;;;;;;5110072;28;20898;-67
2023/05/29 14:14:02;;;;;;;3.00;1.90;;;;;;;;;;5110453;28;20604;-67
2023/05/29 14:16:30;;;;;;;2.08;1.45;;;27.30;1.00;;;;;;5109942;28;20566;-67
2023/05/29 14:18:57;;;;;;;2.42;1.35;;;;;;;;;;5110658;28;20197;-65
2023/05/29 14:21:24;;;;;;;2.53;1.75;;;;;;;;;;5110285;28;20197;-67
2023/05/29 14:23:51;;;;;;;2.28;1.70;;;;;;;;;;5110399;28;20205;-65
2023/05/29 14:26:18;;;;;;;3.10;1.83;;;30.60;1.00;;;;;;5110155;28;20216;-66
2023/05/29 14:28:45;;;;;;;2.30;1.80;;;31.30;1.00;;;;;;5110382;28;20208;-66
2023/05/29 14:31:12;;;;;;;2.20;1.70;;;30.90;1.00;;;;;;5109919;28;20194;-66
2023/05/29 14:33:40;;;;;;;2.65;1.80;;;30.80;1.00;;;;;;5110944;28;20209;-68
2023/05/29 14:36:07;;;;;;;2.72;1.95;;;31.50;1.00;;;;;;5114100;28;20212;-65
2023/05/29 14:38:35;;;;;;;2.00;1.50;;;;;;;;;;5114103;28;20194;-66
2023/05/29 14:41:02;;;;;;;2.25;1.67;;;;;;;;;;5114246;28;20201;-66
2023/05/29 14:43:30;;;;;;;4.82;1.92;;;;;;;;;;5113063;28;20216;-66
2023/05/29 14:45:57;;;;;;;2.08;1.50;;;;;;;;;;5114189;28;20220;-66